createdAt,value
2018-09-28T00:00:39.225Z,8.30
2018-09-28T00:03:08.394Z,8.30
2018-09-28T00:05:37.549Z,8.50
2018-09-28T00:08:06.915Z,8.50
2018-09-28T00:10:36.510Z,8.50
2018-09-28T00:13:05.638Z,8.50
2018-09-28T00:15:35.430Z,8.50
2018-09-28T00:18:04.586Z,8.50
2018-09-28T00:20:33.704Z,8.60
2018-09-28T00:23:02.835Z,8.60
2018-09-28T00:25:32.513Z,8.40
2018-09-28T00:28:01.673Z,8.50
2018-09-28T00:30:31.102Z,8.50
2018-09-28T00:33:00.219Z,8.40
2018-09-28T00:35:30.742Z,8.30
2018-09-28T00:37:59.866Z,8.20
2018-09-28T00:40:29.679Z,8.50
2018-09-28T00:42:58.837Z,8.30
2018-09-28T00:45:29.119Z,8.10
2018-09-28T00:48:00.988Z,8.10
2018-09-28T00:50:30.118Z,8.10
2018-09-28T00:52:59.251Z,8.00
2018-09-28T00:55:28.402Z,8.20
2018-09-28T00:57:57.562Z,8.40
2018-09-28T01:00:26.825Z,8.50
2018-09-28T01:02:55.958Z,8.40
2018-09-28T01:05:25.077Z,8.30
2018-09-28T01:07:56.677Z,8.20
2018-09-28T01:10:25.909Z,8.10
2018-09-28T01:12:55.161Z,8.00
2018-09-28T01:15:24.509Z,8.00
2018-09-28T01:17:53.585Z,7.90
2018-09-28T01:20:22.758Z,7.80
2018-09-28T01:22:51.913Z,7.70
2018-09-28T01:25:21.049Z,7.80
2018-09-28T01:27:50.191Z,7.90
2018-09-28T01:30:19.758Z,8.00
2018-09-28T01:32:48.981Z,8.30
2018-09-28T01:35:18.241Z,8.10
2018-09-28T01:37:48.130Z,8.00
2018-09-28T01:40:18.670Z,8.20
2018-09-28T01:42:54.786Z,8.40
2018-09-28T01:45:24.018Z,8.30
2018-09-28T01:47:53.254Z,8.10
2018-09-28T01:50:23.239Z,7.90
2018-09-28T01:52:52.801Z,7.70
2018-09-28T01:55:22.602Z,7.70
2018-09-28T01:57:51.742Z,7.60
2018-09-28T02:00:20.960Z,7.60
2018-09-28T02:02:50.109Z,7.50
2018-09-28T02:05:21.335Z,7.50
2018-09-28T02:07:51.210Z,7.50
2018-09-28T02:10:20.961Z,7.40
2018-09-28T02:12:50.218Z,7.50
2018-09-28T02:15:19.410Z,7.60
2018-09-28T02:17:48.797Z,7.70
2018-09-28T02:20:18.491Z,7.50
2018-09-28T02:22:47.780Z,7.50
2018-09-28T02:25:17.102Z,7.50
2018-09-28T02:27:46.514Z,7.60
2018-09-28T02:30:16.157Z,7.60
2018-09-28T02:32:45.407Z,7.60
2018-09-28T02:35:14.653Z,7.50
2018-09-28T02:37:43.972Z,7.40
2018-09-28T02:40:13.397Z,7.50
2018-09-28T02:42:43.314Z,7.40
2018-09-28T02:45:12.610Z,7.40
2018-09-28T02:47:42.030Z,7.40
2018-09-28T02:50:11.218Z,7.90
2018-09-28T02:52:40.400Z,8.10
2018-09-28T02:55:09.570Z,8.20
2018-09-28T02:57:38.694Z,8.30
2018-09-28T03:00:07.822Z,8.30
2018-09-28T03:02:36.988Z,8.40
2018-09-28T03:05:06.283Z,8.10
2018-09-28T03:07:35.441Z,7.90
2018-09-28T03:10:04.759Z,7.90
2018-09-28T03:12:33.992Z,7.80
2018-09-28T03:15:03.460Z,7.50
2018-09-28T03:17:32.685Z,7.30
2018-09-28T03:20:02.219Z,7.30
2018-09-28T03:22:32.146Z,7.30
2018-09-28T03:25:01.358Z,7.30
2018-09-28T03:27:30.503Z,7.30
2018-09-28T03:29:59.599Z,7.20
2018-09-28T03:32:28.734Z,7.30
2018-09-28T03:34:58.407Z,7.30
2018-09-28T03:37:27.553Z,7.50
2018-09-28T03:39:56.702Z,7.70
2018-09-28T03:42:25.870Z,7.80
2018-09-28T03:44:55.705Z,7.60
2018-09-28T03:47:24.850Z,7.50
2018-09-28T03:49:53.982Z,7.40
2018-09-28T03:52:23.095Z,7.50
2018-09-28T03:54:52.246Z,7.40
2018-09-28T03:57:21.774Z,7.30
2018-09-28T03:59:51.062Z,7.20
2018-09-28T04:02:20.455Z,7.10
2018-09-28T04:04:49.578Z,7.10
2018-09-28T04:07:18.747Z,7.00
2018-09-28T04:09:47.946Z,7.00
2018-09-28T04:12:17.148Z,6.90
2018-09-28T04:14:46.450Z,6.90
2018-09-28T04:17:15.622Z,7.30
2018-09-28T04:19:44.776Z,7.60
2018-09-28T04:22:13.939Z,7.60
2018-09-28T04:24:43.267Z,7.60
2018-09-28T04:27:12.787Z,7.50
2018-09-28T04:29:41.902Z,7.50
2018-09-28T04:32:11.062Z,7.60
2018-09-28T04:34:40.810Z,7.60
2018-09-28T04:37:10.602Z,7.60
2018-09-28T04:39:39.706Z,7.50
2018-09-28T04:42:08.941Z,7.50
2018-09-28T04:44:38.156Z,7.30
2018-09-28T04:47:07.447Z,7.40
2018-09-28T04:49:37.189Z,7.30
2018-09-28T04:52:07.246Z,7.40
2018-09-28T04:54:36.652Z,7.30
2018-09-28T04:57:05.910Z,7.00
2018-09-28T04:59:35.642Z,6.90
2018-09-28T05:02:05.302Z,6.90
2018-09-28T05:04:34.639Z,6.90
2018-09-28T05:10:05.271Z,7.30
2018-09-28T05:12:34.454Z,7.20
2018-09-28T05:15:03.610Z,7.20
2018-09-28T05:17:32.726Z,7.20
2018-09-28T05:20:02.079Z,7.20
2018-09-28T05:22:31.219Z,7.10
2018-09-28T05:25:00.355Z,7.00
2018-09-28T05:27:31.653Z,6.90
2018-09-28T05:30:04.887Z,7.00
2018-09-28T05:32:36.530Z,7.10
2018-09-28T05:35:05.586Z,7.10
2018-09-28T05:37:34.732Z,7.20
2018-09-28T05:40:03.979Z,7.20
2018-09-28T05:42:34.642Z,7.10
2018-09-28T05:45:03.822Z,7.20
2018-09-28T05:47:33.036Z,7.30
2018-09-28T05:50:02.388Z,7.30
2018-09-28T05:52:31.554Z,7.40
2018-09-28T05:55:00.835Z,7.40
2018-09-28T05:57:30.049Z,7.30
2018-09-28T06:00:04.510Z,7.50
2018-09-28T06:02:39.011Z,7.50
2018-09-28T06:05:13.396Z,7.50
2018-09-28T06:07:42.566Z,7.40
2018-09-28T06:10:11.788Z,7.50
2018-09-28T06:12:41.188Z,7.70
2018-09-28T06:15:10.318Z,8.00
2018-09-28T06:17:39.434Z,9.00
2018-09-28T06:20:08.737Z,9.80
2018-09-28T06:22:37.962Z,10.40
2018-09-28T06:25:07.276Z,10.90
2018-09-28T06:27:36.453Z,11.60
2018-09-28T06:30:05.733Z,12.30
2018-09-28T06:32:34.888Z,12.90
2018-09-28T06:35:04.093Z,13.10
2018-09-28T06:37:33.686Z,13.20
2018-09-28T06:40:02.986Z,13.90
2018-09-28T06:42:32.384Z,14.00
2018-09-28T06:45:01.795Z,13.70
2018-09-28T06:47:31.671Z,14.10
2018-09-28T06:50:01.143Z,14.90
2018-09-28T06:52:30.497Z,15.10
2018-09-28T06:54:59.798Z,15.10
2018-09-28T06:57:29.066Z,15.40
2018-09-28T06:59:58.568Z,16.10
2018-09-28T07:02:27.807Z,16.20
2018-09-28T07:04:57.054Z,15.70
2018-09-28T07:07:26.440Z,15.50
2018-09-28T07:09:55.746Z,15.40
2018-09-28T07:12:25.031Z,16.20
2018-09-28T07:14:54.254Z,16.90
2018-09-28T07:17:23.947Z,16.10
2018-09-28T07:19:53.439Z,16.10
2018-09-28T07:22:23.547Z,17.10
2018-09-28T07:24:52.789Z,17.70
2018-09-28T07:27:21.921Z,18.10
2018-09-28T07:29:51.187Z,18.10
2018-09-28T07:32:20.288Z,18.40
2018-09-28T07:34:49.549Z,18.10
2018-09-28T07:37:19.329Z,18.90
2018-09-28T07:39:48.443Z,19.70
2018-09-28T07:42:17.739Z,20.40
2018-09-28T07:44:46.915Z,20.80
2018-09-28T07:47:16.170Z,21.40
2018-09-28T07:49:45.362Z,21.00
2018-09-28T07:52:14.578Z,20.20
2018-09-28T07:54:43.762Z,20.90
2018-09-28T07:57:12.969Z,21.20
2018-09-28T07:59:42.141Z,20.40
2018-09-28T08:02:11.281Z,20.60
2018-09-28T08:04:40.481Z,20.90
2018-09-28T08:07:10.030Z,21.50
2018-09-28T08:09:39.261Z,20.40
2018-09-28T08:12:08.442Z,19.90
2018-09-28T08:14:37.637Z,20.50
2018-09-28T08:17:06.806Z,22.00
2018-09-28T08:19:36.002Z,23.40
2018-09-28T08:22:05.195Z,23.80
2018-09-28T08:24:34.443Z,23.90
2018-09-28T08:27:03.643Z,22.50
2018-09-28T08:29:32.783Z,23.30
2018-09-28T08:32:01.984Z,24.20
2018-09-28T08:34:31.226Z,26.00
2018-09-28T08:37:00.778Z,25.80
2018-09-28T08:39:30.444Z,26.80
2018-09-28T08:41:59.980Z,25.10
2018-09-28T08:44:29.698Z,25.30
2018-09-28T08:46:58.868Z,25.60
2018-09-28T08:49:28.815Z,26.10
2018-09-28T08:51:58.477Z,26.00
2018-09-28T08:54:27.995Z,26.80
2018-09-28T08:56:57.525Z,23.70
2018-09-28T08:59:26.769Z,23.40
2018-09-28T09:01:55.981Z,23.80
2018-09-28T09:04:25.288Z,23.30
2018-09-28T09:06:55.012Z,25.50
2018-09-28T09:09:24.247Z,26.00
2018-09-28T09:11:53.500Z,25.40
2018-09-28T09:14:22.706Z,25.40
2018-09-28T09:16:51.894Z,26.00
2018-09-28T09:19:21.062Z,26.00
2018-09-28T09:21:50.211Z,26.50
2018-09-28T09:24:19.493Z,27.20
2018-09-28T09:26:48.693Z,28.50
2018-09-28T09:29:18.356Z,29.10
2018-09-28T09:31:47.557Z,26.60
2018-09-28T09:34:16.705Z,25.90
2018-09-28T09:36:45.942Z,26.20
2018-09-28T09:39:15.124Z,27.10
2018-09-28T09:41:44.303Z,27.40
2018-09-28T09:44:13.659Z,27.50
2018-09-28T09:46:43.987Z,28.60
2018-09-28T09:49:13.723Z,26.80
2018-09-28T09:51:42.929Z,26.60
2018-09-28T09:54:12.099Z,24.60
2018-09-28T09:56:41.670Z,25.40
2018-09-28T09:59:10.850Z,27.00
2018-09-28T10:01:45.332Z,26.80
2018-09-28T10:04:14.534Z,27.30
2018-09-28T10:06:43.756Z,26.80
2018-09-28T10:09:14.006Z,25.90
2018-09-28T10:11:43.661Z,24.90
2018-09-28T10:14:12.854Z,25.00
2018-09-28T10:16:42.785Z,23.40
2018-09-28T10:19:12.123Z,24.30
2018-09-28T10:21:41.727Z,24.20
2018-09-28T10:24:11.632Z,22.80
2018-09-28T10:26:40.846Z,23.00
2018-09-28T10:29:10.050Z,23.20
2018-09-28T10:31:39.195Z,24.40
2018-09-28T10:34:08.408Z,23.10
2018-09-28T10:36:37.559Z,22.90
2018-09-28T10:39:08.479Z,25.00
2018-09-28T10:41:37.606Z,24.60
2018-09-28T10:44:07.015Z,26.40
2018-09-28T10:46:36.466Z,25.90
2018-09-28T10:49:05.765Z,28.00
2018-09-28T10:51:35.771Z,25.90
2018-09-28T10:54:05.000Z,26.90
2018-09-28T10:56:34.188Z,26.80
2018-09-28T10:59:03.354Z,28.50
2018-09-28T11:01:32.579Z,28.60
2018-09-28T11:04:09.176Z,26.70
2018-09-28T11:06:38.599Z,26.80
2018-09-28T11:09:10.205Z,26.00
2018-09-28T11:11:39.817Z,26.70
2018-09-28T11:14:09.098Z,28.10
2018-09-28T11:16:38.879Z,27.60
2018-09-28T11:19:08.099Z,24.60
2018-09-28T11:21:37.331Z,23.00
2018-09-28T11:24:06.566Z,23.00
2018-09-28T11:26:36.251Z,23.30
2018-09-28T11:29:05.563Z,25.30
2018-09-28T11:31:34.789Z,26.50
2018-09-28T11:34:03.998Z,26.80
2018-09-28T11:36:34.269Z,27.90
2018-09-28T11:39:05.343Z,28.90
2018-09-28T11:41:34.738Z,28.20
2018-09-28T11:44:03.901Z,26.90
2018-09-28T11:46:33.462Z,26.20
2018-09-28T11:49:03.082Z,25.20
2018-09-28T11:51:32.703Z,25.90
2018-09-28T11:54:01.924Z,24.80
2018-09-28T11:56:31.132Z,25.80
2018-09-28T11:59:00.298Z,26.40
2018-09-28T12:01:29.452Z,26.30
2018-09-28T12:03:58.618Z,25.70
2018-09-28T12:06:27.883Z,24.30
2018-09-28T12:08:57.373Z,25.00
2018-09-28T12:11:26.519Z,24.80
2018-09-28T12:13:55.775Z,23.50
2018-09-28T12:16:24.956Z,23.30
2018-09-28T12:18:54.169Z,23.80
2018-09-28T12:21:23.489Z,24.80
2018-09-28T12:23:52.545Z,24.20
2018-09-28T12:26:21.923Z,25.20
2018-09-28T12:28:51.262Z,23.20
2018-09-28T12:31:20.906Z,22.80
2018-09-28T12:33:50.109Z,23.00
2018-09-28T12:36:19.661Z,23.20
2018-09-28T12:38:48.890Z,24.30
2018-09-28T12:41:18.106Z,24.80
2018-09-28T12:43:47.443Z,23.90
2018-09-28T12:46:16.879Z,23.60
2018-09-28T12:48:46.272Z,22.40
2018-09-28T12:51:15.576Z,22.10
2018-09-28T12:53:44.856Z,21.60
2018-09-28T12:56:14.251Z,21.30
2018-09-28T12:58:43.407Z,21.10
2018-09-28T13:01:12.734Z,20.80
2018-09-28T13:03:42.794Z,20.60
2018-09-28T13:06:12.079Z,20.80
2018-09-28T13:08:41.223Z,21.00
2018-09-28T13:11:10.407Z,21.20
2018-09-28T13:13:39.563Z,21.10
2018-09-28T13:16:09.303Z,21.00
2018-09-28T13:18:38.551Z,21.60
2018-09-28T13:21:07.799Z,21.70
2018-09-28T13:23:36.903Z,22.60
2018-09-28T13:26:06.318Z,23.80
2018-09-28T13:28:35.491Z,23.10
2018-09-28T13:31:04.663Z,22.90
2018-09-28T13:33:33.834Z,23.90
2018-09-28T13:36:03.002Z,24.20
2018-09-28T13:38:32.353Z,23.70
2018-09-28T13:41:01.369Z,24.00
2018-09-28T13:43:30.538Z,23.30
2018-09-28T13:45:59.830Z,22.90
2018-09-28T13:48:28.995Z,22.30
2018-09-28T13:50:58.294Z,21.90
2018-09-28T13:53:27.734Z,21.70
2018-09-28T13:55:56.986Z,20.90
2018-09-28T13:58:26.244Z,20.80
2018-09-28T14:00:55.390Z,21.10
2018-09-28T14:03:25.698Z,21.20
2018-09-28T14:05:55.517Z,21.20
2018-09-28T14:08:24.960Z,20.60
2018-09-28T14:10:54.819Z,20.40
2018-09-28T14:13:23.987Z,20.40
2018-09-28T14:15:53.705Z,20.40
2018-09-28T14:18:23.735Z,20.60
2018-09-28T14:20:53.028Z,20.50
2018-09-28T14:23:22.554Z,20.50
2018-09-28T14:25:51.792Z,20.50
2018-09-28T14:28:21.170Z,20.60
2018-09-28T14:30:50.764Z,20.70
2018-09-28T14:33:19.940Z,20.20
2018-09-28T14:35:49.187Z,20.30
2018-09-28T14:38:18.536Z,20.20
2018-09-28T14:40:47.957Z,20.40
2018-09-28T14:43:17.114Z,20.70
2018-09-28T14:45:48.922Z,20.80
2018-09-28T14:48:18.418Z,20.50
2018-09-28T14:50:48.504Z,20.60
2018-09-28T14:53:19.538Z,20.50
2018-09-28T14:55:48.997Z,20.20
2018-09-28T14:58:18.435Z,20.10
2018-09-28T15:00:47.781Z,20.10
2018-09-28T15:03:17.915Z,20.10
2018-09-28T15:05:47.046Z,20.00
2018-09-28T15:08:16.979Z,20.10
2018-09-28T15:10:46.163Z,20.10
2018-09-28T15:13:15.342Z,20.10
2018-09-28T15:15:44.577Z,20.10
2018-09-28T15:18:14.624Z,20.00
2018-09-28T15:20:44.715Z,20.00
2018-09-28T15:23:13.990Z,19.80
2018-09-28T15:25:43.970Z,19.60
2018-09-28T15:28:14.479Z,19.50
2018-09-28T15:30:45.275Z,19.50
2018-09-28T15:33:16.118Z,19.30
2018-09-28T15:35:45.862Z,19.40
2018-09-28T15:38:15.342Z,19.40
2018-09-28T15:40:44.734Z,19.40
2018-09-28T15:43:13.918Z,19.30
2018-09-28T15:45:43.094Z,19.30
2018-09-28T15:48:12.998Z,19.10
2018-09-28T15:50:42.286Z,19.10
2018-09-28T15:53:11.418Z,19.10
2018-09-28T15:55:40.548Z,19.10
2018-09-28T15:58:09.658Z,19.10
2018-09-28T16:00:38.794Z,19.10
2018-09-28T16:03:07.894Z,19.00
2018-09-28T16:05:37.538Z,19.00
2018-09-28T16:08:06.694Z,18.90
2018-09-28T16:10:35.803Z,18.90
2018-09-28T16:13:04.958Z,18.90
2018-09-28T16:15:34.502Z,18.80
2018-09-28T16:18:03.598Z,18.80
2018-09-28T16:20:32.850Z,18.70
2018-09-28T16:23:02.038Z,18.60
2018-09-28T16:25:31.900Z,18.60
2018-09-28T16:28:01.003Z,18.60
2018-09-28T16:30:30.150Z,18.50
2018-09-28T16:32:59.264Z,18.40
2018-09-28T16:35:28.366Z,18.40
2018-09-28T16:37:57.504Z,18.30
2018-09-28T16:40:26.623Z,18.20
2018-09-28T16:42:55.744Z,18.20
2018-09-28T16:45:25.398Z,18.10
2018-09-28T16:47:54.506Z,18.20
2018-09-28T16:50:23.634Z,18.20
2018-09-28T16:52:53.030Z,18.10
2018-09-28T16:55:22.137Z,17.80
2018-09-28T16:57:51.315Z,17.80
2018-09-28T17:00:20.410Z,17.80
2018-09-28T17:02:49.914Z,17.80
2018-09-28T17:05:19.067Z,17.70
2018-09-28T17:07:48.215Z,17.60
2018-09-28T17:10:17.322Z,17.70
2018-09-28T17:12:46.462Z,17.60
2018-09-28T17:15:15.566Z,17.50
2018-09-28T17:17:44.670Z,17.50
2018-09-28T17:20:14.247Z,17.50
2018-09-28T17:22:43.562Z,17.60
2018-09-28T17:25:12.930Z,17.50
2018-09-28T17:27:42.074Z,17.60
2018-09-28T17:30:11.241Z,17.50
2018-09-28T17:32:40.614Z,17.50
2018-09-28T17:35:09.797Z,17.50
2018-09-28T17:37:38.903Z,17.40
2018-09-28T17:40:08.054Z,17.40
2018-09-28T17:42:37.958Z,17.30
2018-09-28T17:45:07.374Z,17.20
2018-09-28T17:47:36.489Z,17.30
2018-09-28T17:50:05.611Z,17.30
2018-09-28T17:52:35.727Z,17.30
2018-09-28T17:55:04.986Z,17.20
2018-09-28T17:57:34.118Z,17.10
2018-09-28T18:00:03.287Z,17.00
2018-09-28T18:02:32.416Z,17.10
2018-09-28T18:05:01.536Z,17.00
2018-09-28T18:07:30.711Z,16.90
2018-09-28T18:10:00.103Z,16.90
2018-09-28T18:12:29.410Z,16.80
2018-09-28T18:14:58.519Z,16.70
2018-09-28T18:17:27.690Z,16.60
2018-09-28T18:19:56.901Z,16.60
2018-09-28T18:22:26.113Z,16.40
2018-09-28T18:24:55.307Z,16.40
2018-09-28T18:27:24.586Z,16.40
2018-09-28T18:29:55.216Z,16.30
2018-09-28T18:32:24.950Z,16.20
2018-09-28T18:34:55.011Z,16.10
2018-09-28T18:37:24.747Z,16.10
2018-09-28T18:39:54.250Z,16.10
2018-09-28T18:42:23.758Z,16.00
2018-09-28T18:44:53.219Z,15.90
2018-09-28T18:47:22.819Z,15.80
2018-09-28T18:49:52.435Z,15.80
2018-09-28T18:52:21.930Z,15.80
2018-09-28T18:54:51.735Z,15.70
2018-09-28T18:57:21.122Z,15.60
2018-09-28T18:59:50.721Z,15.50
2018-09-28T19:02:20.122Z,15.40
2018-09-28T19:04:49.547Z,15.30
2018-09-28T19:07:18.950Z,15.20
2018-09-28T19:09:48.741Z,15.10
2018-09-28T19:12:18.642Z,14.90
2018-09-28T19:14:48.998Z,14.90
2018-09-28T19:17:18.378Z,14.60
2018-09-28T19:19:48.063Z,14.60
2018-09-28T19:22:17.422Z,14.50
2018-09-28T19:24:48.593Z,14.50
2018-09-28T19:27:18.069Z,14.40
2018-09-28T19:29:48.292Z,14.30
2018-09-28T19:32:17.924Z,14.20
2018-09-28T19:34:47.792Z,14.10
2018-09-28T19:37:19.374Z,14.10
2018-09-28T19:39:48.750Z,14.00
2018-09-28T19:42:18.420Z,13.90
2018-09-28T19:44:47.751Z,13.90
2018-09-28T19:47:17.903Z,13.90
2018-09-28T19:49:47.631Z,13.90
2018-09-28T19:52:16.801Z,13.90
2018-09-28T19:54:46.214Z,13.80
2018-09-28T19:57:16.231Z,13.80
2018-09-28T19:59:46.070Z,13.80
2018-09-28T20:02:15.654Z,13.80
2018-09-28T20:04:45.230Z,13.80
2018-09-28T20:07:15.557Z,13.80
2018-09-28T20:09:45.114Z,13.80
2018-09-28T20:12:15.364Z,13.80
2018-09-28T20:14:45.233Z,13.70
2018-09-28T20:17:14.587Z,13.70
2018-09-28T20:19:43.930Z,13.70
2018-09-28T20:22:14.437Z,13.80
2018-09-28T20:24:44.526Z,13.80
2018-09-28T20:27:14.475Z,14.00
2018-09-28T20:29:44.219Z,14.00
2018-09-28T20:32:14.291Z,13.90
2018-09-28T20:34:43.629Z,13.90
2018-09-28T20:37:13.259Z,13.70
2018-09-28T20:39:42.611Z,13.70
2018-09-28T20:42:11.886Z,13.70
2018-09-28T20:44:41.464Z,13.80
2018-09-28T20:47:10.817Z,13.80
2018-09-28T20:49:40.439Z,13.80
2018-09-28T20:52:10.360Z,13.90
2018-09-28T20:54:40.278Z,13.80
2018-09-28T20:57:09.485Z,13.60
2018-09-28T20:59:40.529Z,13.50
2018-09-28T21:02:09.948Z,13.40
2018-09-28T21:04:41.794Z,13.40
2018-09-28T21:07:11.126Z,13.30
2018-09-28T21:09:40.462Z,13.10
2018-09-28T21:12:10.530Z,12.80
2018-09-28T21:14:44.227Z,12.60
2018-09-28T21:17:13.979Z,12.30
2018-09-28T21:19:43.413Z,12.00
2018-09-28T21:22:12.547Z,11.90
2018-09-28T21:24:42.496Z,11.80
2018-09-28T21:27:11.586Z,11.70
2018-09-28T21:29:40.714Z,11.70
2018-09-28T21:32:11.377Z,11.60
2018-09-28T21:34:40.526Z,11.60
2018-09-28T21:37:09.663Z,11.50
2018-09-28T21:39:39.458Z,11.50
2018-09-28T21:42:08.649Z,11.40
2018-09-28T21:44:37.903Z,11.40
2018-09-28T21:47:07.029Z,11.40
2018-09-28T21:49:36.187Z,11.40
2018-09-28T21:52:05.458Z,11.40
2018-09-28T21:54:36.179Z,11.40
2018-09-28T21:57:05.339Z,11.40
2018-09-28T21:59:34.506Z,11.30
2018-09-28T22:02:04.671Z,11.30
2018-09-28T22:04:34.277Z,11.30
2018-09-28T22:07:03.386Z,11.20
2018-09-28T22:09:32.683Z,11.20
2018-09-28T22:12:01.900Z,11.20
2018-09-28T22:14:31.670Z,11.20
2018-09-28T22:17:04.062Z,11.20
2018-09-28T22:19:33.250Z,11.20
2018-09-28T22:22:02.366Z,11.20
2018-09-28T22:24:33.018Z,11.20
2018-09-28T22:27:02.151Z,11.10
2018-09-28T22:29:31.423Z,11.10
2018-09-28T22:32:07.651Z,11.10
2018-09-28T22:34:36.900Z,11.10
2018-09-28T22:37:06.738Z,11.10
2018-09-28T22:39:36.695Z,11.10
2018-09-28T22:42:05.818Z,11.10
2018-09-28T22:44:34.970Z,11.10
2018-09-28T22:47:04.207Z,11.10
2018-09-28T22:49:33.322Z,11.10
2018-09-28T22:52:02.931Z,11.20
2018-09-28T22:54:32.113Z,11.10
2018-09-28T22:57:01.312Z,11.20
2018-09-28T22:59:30.457Z,11.10
2018-09-28T23:02:00.742Z,11.20
2018-09-28T23:04:30.414Z,11.20
2018-09-28T23:06:59.650Z,11.30
2018-09-28T23:10:32.666Z,11.30
2018-09-28T23:13:01.805Z,11.30
2018-09-28T23:15:30.941Z,11.30
2018-09-28T23:18:00.087Z,11.30
2018-09-28T23:20:29.250Z,11.30
2018-09-28T23:22:58.345Z,11.20
2018-09-28T23:25:30.077Z,11.20
2018-09-28T23:27:59.238Z,11.20
2018-09-28T23:30:28.399Z,11.10
2018-09-28T23:32:57.545Z,11.10
2018-09-28T23:35:27.111Z,11.10
2018-09-28T23:37:56.774Z,11.20
2018-09-28T23:40:26.118Z,11.10
2018-09-28T23:42:56.132Z,11.10
2018-09-28T23:45:25.377Z,11.30
2018-09-28T23:47:54.510Z,11.20
2018-09-28T23:50:24.166Z,11.00
2018-09-28T23:52:53.299Z,11.00
2018-09-28T23:55:22.420Z,10.90
2018-09-28T23:57:51.573Z,11.00
